sensor_id;sensor_type;location;lat;lon;timestamp;P1;durP1;ratioP1;P2;durP2;ratioP2
22363;SDS011;11349;53.412;-1.328;2024-02-21T00:02:11;14.05;;;7.57;;
22363;SDS011;11349;53.412;-1.328;2024-02-21T00:04:36;11.88;;;7.07;;
22363;SDS011;11349;53.412;-1.328;2024-02-21T00:07:03;13.70;;;7.45;;
22363;SDS011;11349;53.412;-1.328;2024-02-21T00:09:29;10.40;;;5.85;;
22363;SDS011;11349;53.412;-1.328;2024-02-21T00:11:55;11.25;;;7.20;;
22363;SDS011;11349;53.412;-1.328;2024-02-21T00:14:21;14.88;;;7.50;;
22363;SDS011;11349;53.412;-1.328;2024-02-21T00:16:47;15.20;;;7.90;;
22363;SDS011;11349;53.412;-1.328;2024-02-21T00:19:12;13.35;;;7.72;;
22363;SDS011;11349;53.412;-1.328;2024-02-21T00:21:39;13.18;;;7.82;;
22363;SDS011;11349;53.412;-1.328;2024-02-21T00:24:05;14.40;;;8.75;;
22363;SDS011;11349;53.412;-1.328;2024-02-21T00:26:31;12.82;;;8.73;;
22363;SDS011;11349;53.412;-1.328;2024-02-21T00:28:57;15.27;;;9.45;;
22363;SDS011;11349;53.412;-1.328;2024-02-21T00:31:22;17.20;;;10.05;;
22363;SDS011;11349;53.412;-1.328;2024-02-21T00:33:48;13.60;;;8.38;;
22363;SDS011;11349;53.412;-1.328;2024-02-21T00:36:15;12.45;;;9.15;;
22363;SDS011;11349;53.412;-1.328;2024-02-21T00:38:41;12.07;;;8.23;;
22363;SDS011;11349;53.412;-1.328;2024-02-21T00:41:07;13.05;;;7.80;;
22363;SDS011;11349;53.412;-1.328;2024-02-21T00:43:32;14.43;;;8.55;;
22363;SDS011;11349;53.412;-1.328;2024-02-21T00:45:58;11.05;;;7.30;;
22363;SDS011;11349;53.412;-1.328;2024-02-21T00:48:24;10.88;;;7.70;;
22363;SDS011;11349;53.412;-1.328;2024-02-21T00:50:50;14.60;;;7.57;;
22363;SDS011;11349;53.412;-1.328;2024-02-21T00:53:15;10.25;;;6.72;;
22363;SDS011;11349;53.412;-1.328;2024-02-21T00:55:41;11.27;;;7.63;;
22363;SDS011;11349;53.412;-1.328;2024-02-21T00:58:08;12.10;;;7.85;;
22363;SDS011;11349;53.412;-1.328;2024-02-21T01:00:34;13.25;;;8.05;;
22363;SDS011;11349;53.412;-1.328;2024-02-21T01:02:59;12.77;;;7.38;;
22363;SDS011;11349;53.412;-1.328;2024-02-21T01:05:25;12.38;;;8.10;;
22363;SDS011;11349;53.412;-1.328;2024-02-21T01:07:52;11.30;;;7.38;;
22363;SDS011;11349;53.412;-1.328;2024-02-21T01:10:18;12.02;;;7.68;;
22363;SDS011;11349;53.412;-1.328;2024-02-21T01:12:43;10.80;;;7.40;;
22363;SDS011;11349;53.412;-1.328;2024-02-21T01:15:09;9.10;;;6.90;;
22363;SDS011;11349;53.412;-1.328;2024-02-21T01:17:35;12.20;;;7.15;;
22363;SDS011;11349;53.412;-1.328;2024-02-21T01:20:01;10.98;;;6.90;;
22363;SDS011;11349;53.412;-1.328;2024-02-21T01:22:27;10.13;;;6.63;;
22363;SDS011;11349;53.412;-1.328;2024-02-21T01:24:53;12.05;;;6.80;;
22363;SDS011;11349;53.412;-1.328;2024-02-21T01:27:19;10.75;;;7.18;;
22363;SDS011;11349;53.412;-1.328;2024-02-21T01:29:46;9.25;;;6.35;;
22363;SDS011;11349;53.412;-1.328;2024-02-21T01:32:14;9.20;;;6.30;;
22363;SDS011;11349;53.412;-1.328;2024-02-21T01:34:40;12.30;;;7.47;;
22363;SDS011;11349;53.412;-1.328;2024-02-21T01:37:06;12.27;;;6.60;;
22363;SDS011;11349;53.412;-1.328;2024-02-21T01:39:32;13.75;;;8.00;;
22363;SDS011;11349;53.412;-1.328;2024-02-21T01:41:59;11.00;;;7.10;;
22363;SDS011;11349;53.412;-1.328;2024-02-21T01:44:24;13.15;;;7.50;;
22363;SDS011;11349;53.412;-1.328;2024-02-21T01:46:50;11.25;;;8.05;;
22363;SDS011;11349;53.412;-1.328;2024-02-21T01:49:17;14.88;;;8.57;;
22363;SDS011;11349;53.412;-1.328;2024-02-21T01:51:47;13.45;;;8.93;;
22363;SDS011;11349;53.412;-1.328;2024-02-21T01:54:16;13.80;;;9.20;;
22363;SDS011;11349;53.412;-1.328;2024-02-21T01:56:44;14.27;;;9.50;;
22363;SDS011;11349;53.412;-1.328;2024-02-21T01:59:11;15.20;;;8.93;;
22363;SDS011;11349;53.412;-1.328;2024-02-21T02:01:38;15.10;;;9.75;;
22363;SDS011;11349;53.412;-1.328;2024-02-21T02:04:04;14.20;;;9.65;;
22363;SDS011;11349;53.412;-1.328;2024-02-21T02:06:31;13.60;;;9.57;;
22363;SDS011;11349;53.412;-1.328;2024-02-21T02:08:57;16.02;;;10.38;;
22363;SDS011;11349;53.412;-1.328;2024-02-21T02:11:22;15.00;;;10.25;;
22363;SDS011;11349;53.412;-1.328;2024-02-21T02:13:48;16.08;;;10.07;;
22363;SDS011;11349;53.412;-1.328;2024-02-21T02:16:14;14.02;;;9.27;;
22363;SDS011;11349;53.412;-1.328;2024-02-21T02:18:40;12.73;;;8.82;;
22363;SDS011;11349;53.412;-1.328;2024-02-21T02:21:07;13.25;;;8.32;;
22363;SDS011;11349;53.412;-1.328;2024-02-21T02:23:41;13.98;;;9.65;;
22363;SDS011;11349;53.412;-1.328;2024-02-21T02:26:07;13.05;;;8.38;;
22363;SDS011;11349;53.412;-1.328;2024-02-21T02:28:33;12.07;;;7.88;;
22363;SDS011;11349;53.412;-1.328;2024-02-21T02:30:58;10.38;;;7.32;;
22363;SDS011;11349;53.412;-1.328;2024-02-21T02:33:24;8.95;;;8.02;;
22363;SDS011;11349;53.412;-1.328;2024-02-21T02:35:50;10.05;;;8.20;;
22363;SDS011;11349;53.412;-1.328;2024-02-21T02:38:16;13.05;;;9.85;;
22363;SDS011;11349;53.412;-1.328;2024-02-21T02:40:42;12.52;;;8.88;;
22363;SDS011;11349;53.412;-1.328;2024-02-21T02:43:09;10.82;;;8.65;;
22363;SDS011;11349;53.412;-1.328;2024-02-21T02:45:35;9.77;;;7.75;;
22363;SDS011;11349;53.412;-1.328;2024-02-21T02:48:00;11.57;;;8.15;;
22363;SDS011;11349;53.412;-1.328;2024-02-21T02:50:26;11.98;;;7.75;;
22363;SDS011;11349;53.412;-1.328;2024-02-21T02:52:53;11.07;;;7.00;;
22363;SDS011;11349;53.412;-1.328;2024-02-21T02:55:19;9.27;;;6.78;;
22363;SDS011;11349;53.412;-1.328;2024-02-21T02:57:45;10.60;;;6.90;;
22363;SDS011;11349;53.412;-1.328;2024-02-21T03:00:11;9.80;;;6.43;;
22363;SDS011;11349;53.412;-1.328;2024-02-21T03:02:38;9.77;;;5.57;;
22363;SDS011;11349;53.412;-1.328;2024-02-21T03:05:12;11.80;;;6.55;;
22363;SDS011;11349;53.412;-1.328;2024-02-21T03:07:42;10.63;;;5.95;;
22363;SDS011;11349;53.412;-1.328;2024-02-21T03:10:08;12.82;;;6.07;;
22363;SDS011;11349;53.412;-1.328;2024-02-21T03:12:35;10.98;;;6.15;;
22363;SDS011;11349;53.412;-1.328;2024-02-21T03:15:00;9.65;;;5.95;;
22363;SDS011;11349;53.412;-1.328;2024-02-21T03:17:26;9.63;;;6.25;;
22363;SDS011;11349;53.412;-1.328;2024-02-21T03:19:53;11.48;;;6.68;;
22363;SDS011;11349;53.412;-1.328;2024-02-21T03:22:20;9.85;;;6.20;;
22363;SDS011;11349;53.412;-1.328;2024-02-21T03:24:46;10.57;;;5.80;;
22363;SDS011;11349;53.412;-1.328;2024-02-21T03:27:12;10.73;;;6.50;;
22363;SDS011;11349;53.412;-1.328;2024-02-21T03:29:37;10.30;;;6.47;;
22363;SDS011;11349;53.412;-1.328;2024-02-21T03:32:03;10.32;;;5.75;;
22363;SDS011;11349;53.412;-1.328;2024-02-21T03:34:29;12.43;;;5.65;;
22363;SDS011;11349;53.412;-1.328;2024-02-21T03:36:55;11.95;;;6.00;;
22363;SDS011;11349;53.412;-1.328;2024-02-21T03:39:21;10.00;;;5.95;;
22363;SDS011;11349;53.412;-1.328;2024-02-21T03:41:46;13.55;;;6.72;;
22363;SDS011;11349;53.412;-1.328;2024-02-21T03:44:12;8.50;;;5.45;;
22363;SDS011;11349;53.412;-1.328;2024-02-21T03:46:38;10.23;;;5.15;;
22363;SDS011;11349;53.412;-1.328;2024-02-21T03:49:04;12.32;;;5.10;;
22363;SDS011;11349;53.412;-1.328;2024-02-21T03:51:30;10.05;;;5.20;;
22363;SDS011;11349;53.412;-1.328;2024-02-21T03:53:56;10.45;;;6.05;;
22363;SDS011;11349;53.412;-1.328;2024-02-21T03:56:21;10.20;;;4.63;;
22363;SDS011;11349;53.412;-1.328;2024-02-21T03:58:47;8.60;;;5.20;;
22363;SDS011;11349;53.412;-1.328;2024-02-21T04:01:14;10.00;;;4.53;;
22363;SDS011;11349;53.412;-1.328;2024-02-21T04:03:41;9.90;;;3.95;;
22363;SDS011;11349;53.412;-1.328;2024-02-21T04:06:08;9.75;;;5.03;;
22363;SDS011;11349;53.412;-1.328;2024-02-21T04:08:34;10.60;;;3.83;;
22363;SDS011;11349;53.412;-1.328;2024-02-21T04:10:59;8.00;;;3.88;;
22363;SDS011;11349;53.412;-1.328;2024-02-21T04:13:25;9.90;;;4.93;;
22363;SDS011;11349;53.412;-1.328;2024-02-21T04:15:51;11.07;;;4.35;;
22363;SDS011;11349;53.412;-1.328;2024-02-21T04:18:17;11.88;;;3.50;;
22363;SDS011;11349;53.412;-1.328;2024-02-21T04:20:43;11.05;;;4.30;;
22363;SDS011;11349;53.412;-1.328;2024-02-21T04:23:09;9.48;;;4.15;;
22363;SDS011;11349;53.412;-1.328;2024-02-21T04:25:34;7.53;;;3.80;;
22363;SDS011;11349;53.412;-1.328;2024-02-21T04:28:00;11.45;;;4.30;;
22363;SDS011;11349;53.412;-1.328;2024-02-21T04:30:26;12.25;;;3.97;;
22363;SDS011;11349;53.412;-1.328;2024-02-21T04:32:52;9.32;;;3.72;;
22363;SDS011;11349;53.412;-1.328;2024-02-21T04:35:17;10.98;;;3.70;;
22363;SDS011;11349;53.412;-1.328;2024-02-21T04:37:43;7.75;;;3.10;;
22363;SDS011;11349;53.412;-1.328;2024-02-21T04:40:09;14.88;;;3.33;;
22363;SDS011;11349;53.412;-1.328;2024-02-21T04:42:36;9.40;;;4.15;;
22363;SDS011;11349;53.412;-1.328;2024-02-21T04:45:05;7.38;;;3.05;;
22363;SDS011;11349;53.412;-1.328;2024-02-21T04:47:31;12.18;;;3.20;;
22363;SDS011;11349;53.412;-1.328;2024-02-21T04:49:57;10.05;;;2.97;;
22363;SDS011;11349;53.412;-1.328;2024-02-21T04:52:22;5.65;;;2.35;;
22363;SDS011;11349;53.412;-1.328;2024-02-21T04:54:48;8.77;;;2.97;;
22363;SDS011;11349;53.412;-1.328;2024-02-21T04:57:14;9.40;;;2.55;;
22363;SDS011;11349;53.412;-1.328;2024-02-21T04:59:43;5.50;;;2.63;;
22363;SDS011;11349;53.412;-1.328;2024-02-21T05:02:10;5.97;;;2.45;;
22363;SDS011;11349;53.412;-1.328;2024-02-21T05:04:36;3.55;;;2.30;;
22363;SDS011;11349;53.412;-1.328;2024-02-21T05:07:06;5.90;;;2.00;;
22363;SDS011;11349;53.412;-1.328;2024-02-21T05:09:36;8.88;;;1.95;;
22363;SDS011;11349;53.412;-1.328;2024-02-21T05:12:02;3.35;;;1.40;;
22363;SDS011;11349;53.412;-1.328;2024-02-21T05:14:28;4.45;;;1.23;;
22363;SDS011;11349;53.412;-1.328;2024-02-21T05:16:54;5.05;;;1.60;;
22363;SDS011;11349;53.412;-1.328;2024-02-21T05:19:20;2.92;;;0.90;;
22363;SDS011;11349;53.412;-1.328;2024-02-21T05:21:45;5.30;;;1.02;;
22363;SDS011;11349;53.412;-1.328;2024-02-21T05:24:11;3.97;;;1.00;;
22363;SDS011;11349;53.412;-1.328;2024-02-21T05:26:37;3.47;;;1.27;;
22363;SDS011;11349;53.412;-1.328;2024-02-21T05:29:03;2.67;;;0.90;;
22363;SDS011;11349;53.412;-1.328;2024-02-21T05:34:16;2.53;;;0.95;;
22363;SDS011;11349;53.412;-1.328;2024-02-21T05:36:45;2.40;;;0.60;;
22363;SDS011;11349;53.412;-1.328;2024-02-21T05:39:11;2.10;;;0.70;;
22363;SDS011;11349;53.412;-1.328;2024-02-21T05:41:37;3.22;;;0.55;;
22363;SDS011;11349;53.412;-1.328;2024-02-21T05:44:03;2.40;;;0.63;;
22363;SDS011;11349;53.412;-1.328;2024-02-21T05:46:29;0.90;;;0.40;;
22363;SDS011;11349;53.412;-1.328;2024-02-21T05:48:55;1.63;;;0.65;;
22363;SDS011;11349;53.412;-1.328;2024-02-21T05:51:20;2.03;;;0.50;;
22363;SDS011;11349;53.412;-1.328;2024-02-21T05:53:46;1.00;;;0.32;;
22363;SDS011;11349;53.412;-1.328;2024-02-21T05:56:12;1.85;;;0.57;;
22363;SDS011;11349;53.412;-1.328;2024-02-21T05:58:38;0.68;;;0.50;;
22363;SDS011;11349;53.412;-1.328;2024-02-21T06:01:04;0.98;;;0.30;;
22363;SDS011;11349;53.412;-1.328;2024-02-21T06:03:32;0.65;;;0.20;;
22363;SDS011;11349;53.412;-1.328;2024-02-21T06:05:59;1.88;;;0.40;;
22363;SDS011;11349;53.412;-1.328;2024-02-21T06:08:26;0.98;;;0.20;;
22363;SDS011;11349;53.412;-1.328;2024-02-21T06:10:51;1.17;;;0.30;;
22363;SDS011;11349;53.412;-1.328;2024-02-21T06:13:19;1.00;;;0.30;;
22363;SDS011;11349;53.412;-1.328;2024-02-21T06:15:46;1.13;;;0.35;;
22363;SDS011;11349;53.412;-1.328;2024-02-21T06:18:12;1.35;;;0.32;;
22363;SDS011;11349;53.412;-1.328;2024-02-21T06:20:38;0.80;;;0.28;;
22363;SDS011;11349;53.412;-1.328;2024-02-21T06:23:05;1.40;;;0.30;;
22363;SDS011;11349;53.412;-1.328;2024-02-21T06:25:31;1.25;;;0.50;;
22363;SDS011;11349;53.412;-1.328;2024-02-21T06:27:57;2.03;;;0.52;;
22363;SDS011;11349;53.412;-1.328;2024-02-21T06:30:23;0.80;;;0.40;;
22363;SDS011;11349;53.412;-1.328;2024-02-21T06:32:48;1.25;;;0.40;;
22363;SDS011;11349;53.412;-1.328;2024-02-21T06:35:14;2.53;;;1.00;;
22363;SDS011;11349;53.412;-1.328;2024-02-21T06:37:40;2.00;;;0.50;;
22363;SDS011;11349;53.412;-1.328;2024-02-21T06:40:06;1.13;;;0.47;;
22363;SDS011;11349;53.412;-1.328;2024-02-21T06:42:32;2.55;;;0.80;;
22363;SDS011;11349;53.412;-1.328;2024-02-21T06:44:58;1.90;;;0.55;;
22363;SDS011;11349;53.412;-1.328;2024-02-21T06:47:23;3.10;;;0.85;;
22363;SDS011;11349;53.412;-1.328;2024-02-21T06:49:49;3.65;;;0.80;;
22363;SDS011;11349;53.412;-1.328;2024-02-21T06:52:19;2.92;;;0.75;;
22363;SDS011;11349;53.412;-1.328;2024-02-21T06:54:48;1.90;;;0.68;;
22363;SDS011;11349;53.412;-1.328;2024-02-21T06:57:14;3.83;;;0.80;;
22363;SDS011;11349;53.412;-1.328;2024-02-21T06:59:40;3.58;;;1.00;;
22363;SDS011;11349;53.412;-1.328;2024-02-21T07:02:07;2.47;;;0.77;;
22363;SDS011;11349;53.412;-1.328;2024-02-21T07:04:33;3.92;;;0.80;;
22363;SDS011;11349;53.412;-1.328;2024-02-21T07:06:58;2.50;;;0.90;;
22363;SDS011;11349;53.412;-1.328;2024-02-21T07:09:24;3.30;;;0.70;;
22363;SDS011;11349;53.412;-1.328;2024-02-21T07:11:50;5.10;;;0.90;;
22363;SDS011;11349;53.412;-1.328;2024-02-21T07:14:16;2.35;;;0.90;;
22363;SDS011;11349;53.412;-1.328;2024-02-21T07:16:43;2.25;;;0.70;;
22363;SDS011;11349;53.412;-1.328;2024-02-21T07:19:08;4.10;;;1.00;;
22363;SDS011;11349;53.412;-1.328;2024-02-21T07:21:34;3.53;;;1.67;;
22363;SDS011;11349;53.412;-1.328;2024-02-21T07:24:03;3.28;;;1.02;;
22363;SDS011;11349;53.412;-1.328;2024-02-21T07:26:29;4.18;;;0.95;;
22363;SDS011;11349;53.412;-1.328;2024-02-21T07:28:56;3.03;;;0.80;;
22363;SDS011;11349;53.412;-1.328;2024-02-21T07:31:22;6.10;;;1.10;;
22363;SDS011;11349;53.412;-1.328;2024-02-21T07:33:47;3.55;;;1.13;;
22363;SDS011;11349;53.412;-1.328;2024-02-21T07:36:14;2.75;;;0.80;;
22363;SDS011;11349;53.412;-1.328;2024-02-21T07:38:42;4.13;;;0.88;;
22363;SDS011;11349;53.412;-1.328;2024-02-21T07:41:07;1.98;;;0.63;;
22363;SDS011;11349;53.412;-1.328;2024-02-21T07:43:33;3.03;;;0.88;;
22363;SDS011;11349;53.412;-1.328;2024-02-21T07:45:59;2.28;;;0.93;;
22363;SDS011;11349;53.412;-1.328;2024-02-21T07:48:25;5.75;;;1.45;;
22363;SDS011;11349;53.412;-1.328;2024-02-21T07:50:51;4.43;;;1.00;;
22363;SDS011;11349;53.412;-1.328;2024-02-21T07:53:17;4.70;;;1.55;;
22363;SDS011;11349;53.412;-1.328;2024-02-21T07:55:43;3.15;;;1.10;;
22363;SDS011;11349;53.412;-1.328;2024-02-21T07:58:08;2.60;;;1.05;;
22363;SDS011;11349;53.412;-1.328;2024-02-21T08:00:34;4.70;;;1.00;;
22363;SDS011;11349;53.412;-1.328;2024-02-21T08:03:00;4.00;;;0.80;;
22363;SDS011;11349;53.412;-1.328;2024-02-21T08:05:25;3.42;;;0.93;;
22363;SDS011;11349;53.412;-1.328;2024-02-21T08:07:51;3.40;;;1.20;;
22363;SDS011;11349;53.412;-1.328;2024-02-21T08:10:17;2.30;;;1.00;;
22363;SDS011;11349;53.412;-1.328;2024-02-21T08:12:43;2.63;;;0.73;;
22363;SDS011;11349;53.412;-1.328;2024-02-21T08:15:08;3.92;;;1.20;;
22363;SDS011;11349;53.412;-1.328;2024-02-21T08:17:36;2.60;;;0.68;;
22363;SDS011;11349;53.412;-1.328;2024-02-21T08:20:02;4.65;;;1.33;;
22363;SDS011;11349;53.412;-1.328;2024-02-21T08:22:29;2.17;;;1.00;;
22363;SDS011;11349;53.412;-1.328;2024-02-21T08:24:55;4.80;;;1.00;;
22363;SDS011;11349;53.412;-1.328;2024-02-21T08:27:21;2.15;;;0.98;;
22363;SDS011;11349;53.412;-1.328;2024-02-21T08:29:47;3.15;;;1.08;;
22363;SDS011;11349;53.412;-1.328;2024-02-21T08:32:13;3.92;;;1.17;;
22363;SDS011;11349;53.412;-1.328;2024-02-21T08:34:38;3.15;;;0.90;;
22363;SDS011;11349;53.412;-1.328;2024-02-21T08:37:04;3.97;;;1.20;;
22363;SDS011;11349;53.412;-1.328;2024-02-21T08:39:30;3.70;;;1.00;;
22363;SDS011;11349;53.412;-1.328;2024-02-21T08:41:56;3.53;;;0.95;;
22363;SDS011;11349;53.412;-1.328;2024-02-21T08:44:23;3.00;;;0.98;;
22363;SDS011;11349;53.412;-1.328;2024-02-21T08:46:51;4.40;;;1.30;;
22363;SDS011;11349;53.412;-1.328;2024-02-21T08:49:16;3.03;;;1.08;;
22363;SDS011;11349;53.412;-1.328;2024-02-21T08:51:42;5.93;;;1.10;;
22363;SDS011;11349;53.412;-1.328;2024-02-21T08:54:08;2.70;;;0.90;;
22363;SDS011;11349;53.412;-1.328;2024-02-21T08:56:34;2.30;;;0.85;;
22363;SDS011;11349;53.412;-1.328;2024-02-21T08:59:00;3.35;;;0.88;;
22363;SDS011;11349;53.412;-1.328;2024-02-21T09:01:26;4.28;;;1.15;;
22363;SDS011;11349;53.412;-1.328;2024-02-21T09:03:52;4.50;;;1.45;;
22363;SDS011;11349;53.412;-1.328;2024-02-21T09:06:18;3.28;;;0.90;;
22363;SDS011;11349;53.412;-1.328;2024-02-21T09:08:45;2.17;;;0.93;;
22363;SDS011;11349;53.412;-1.328;2024-02-21T09:11:11;2.33;;;0.80;;
22363;SDS011;11349;53.412;-1.328;2024-02-21T09:13:37;3.22;;;0.95;;
22363;SDS011;11349;53.412;-1.328;2024-02-21T09:16:02;2.70;;;0.80;;
22363;SDS011;11349;53.412;-1.328;2024-02-21T09:18:28;1.27;;;0.50;;
22363;SDS011;11349;53.412;-1.328;2024-02-21T09:20:54;2.63;;;0.77;;
22363;SDS011;11349;53.412;-1.328;2024-02-21T09:23:20;1.85;;;0.93;;
22363;SDS011;11349;53.412;-1.328;2024-02-21T09:25:49;2.75;;;0.70;;
22363;SDS011;11349;53.412;-1.328;2024-02-21T09:28:15;1.88;;;0.57;;
22363;SDS011;11349;53.412;-1.328;2024-02-21T09:30:40;1.67;;;0.50;;
22363;SDS011;11349;53.412;-1.328;2024-02-21T09:33:06;2.35;;;0.70;;
22363;SDS011;11349;53.412;-1.328;2024-02-21T09:35:32;1.73;;;0.60;;
22363;SDS011;11349;53.412;-1.328;2024-02-21T09:37:58;1.10;;;0.50;;
22363;SDS011;11349;53.412;-1.328;2024-02-21T09:40:25;2.45;;;0.60;;
22363;SDS011;11349;53.412;-1.328;2024-02-21T09:42:53;1.67;;;0.60;;
22363;SDS011;11349;53.412;-1.328;2024-02-21T09:45:32;2.05;;;0.50;;
22363;SDS011;11349;53.412;-1.328;2024-02-21T09:50:59;3.15;;;0.60;;
22363;SDS011;11349;53.412;-1.328;2024-02-21T09:53:27;2.42;;;0.52;;
22363;SDS011;11349;53.412;-1.328;2024-02-21T09:55:53;2.78;;;0.65;;
22363;SDS011;11349;53.412;-1.328;2024-02-21T09:58:20;1.75;;;0.50;;
22363;SDS011;11349;53.412;-1.328;2024-02-21T10:00:47;2.00;;;0.70;;
22363;SDS011;11349;53.412;-1.328;2024-02-21T10:03:13;1.88;;;0.50;;
22363;SDS011;11349;53.412;-1.328;2024-02-21T10:05:45;1.73;;;0.47;;
22363;SDS011;11349;53.412;-1.328;2024-02-21T10:08:16;1.88;;;0.65;;
22363;SDS011;11349;53.412;-1.328;2024-02-21T10:10:43;1.73;;;0.60;;
22363;SDS011;11349;53.412;-1.328;2024-02-21T10:13:09;1.73;;;0.70;;
22363;SDS011;11349;53.412;-1.328;2024-02-21T10:15:36;3.45;;;0.57;;
22363;SDS011;11349;53.412;-1.328;2024-02-21T10:18:02;1.05;;;0.40;;
22363;SDS011;11349;53.412;-1.328;2024-02-21T10:20:32;1.52;;;0.32;;
22363;SDS011;11349;53.412;-1.328;2024-02-21T10:23:02;1.38;;;0.50;;
22363;SDS011;11349;53.412;-1.328;2024-02-21T10:25:33;2.30;;;0.45;;
22363;SDS011;11349;53.412;-1.328;2024-02-21T10:28:00;1.15;;;0.40;;
22363;SDS011;11349;53.412;-1.328;2024-02-21T10:30:27;1.50;;;0.50;;
22363;SDS011;11349;53.412;-1.328;2024-02-21T10:32:53;2.25;;;0.40;;
22363;SDS011;11349;53.412;-1.328;2024-02-21T10:35:25;1.75;;;0.43;;
22363;SDS011;11349;53.412;-1.328;2024-02-21T10:37:58;0.98;;;0.28;;
22363;SDS011;11349;53.412;-1.328;2024-02-21T10:40:28;3.22;;;0.52;;
22363;SDS011;11349;53.412;-1.328;2024-02-21T10:42:56;1.30;;;0.40;;
22363;SDS011;11349;53.412;-1.328;2024-02-21T10:45:34;3.20;;;0.35;;
22363;SDS011;11349;53.412;-1.328;2024-02-21T10:48:13;2.55;;;0.30;;
22363;SDS011;11349;53.412;-1.328;2024-02-21T10:56:22;1.27;;;0.20;;
22363;SDS011;11349;53.412;-1.328;2024-02-21T10:58:53;0.90;;;0.20;;
22363;SDS011;11349;53.412;-1.328;2024-02-21T11:01:21;0.80;;;0.50;;
22363;SDS011;11349;53.412;-1.328;2024-02-21T11:03:49;0.80;;;0.20;;
22363;SDS011;11349;53.412;-1.328;2024-02-21T11:06:17;2.35;;;0.30;;
22363;SDS011;11349;53.412;-1.328;2024-02-21T11:08:44;1.00;;;0.50;;
22363;SDS011;11349;53.412;-1.328;2024-02-21T11:11:12;0.95;;;0.55;;
22363;SDS011;11349;53.412;-1.328;2024-02-21T11:13:42;1.70;;;0.40;;
22363;SDS011;11349;53.412;-1.328;2024-02-21T11:16:09;1.20;;;0.40;;
22363;SDS011;11349;53.412;-1.328;2024-02-21T11:18:39;0.82;;;0.25;;
22363;SDS011;11349;53.412;-1.328;2024-02-21T11:21:04;1.58;;;0.50;;
22363;SDS011;11349;53.412;-1.328;2024-02-21T11:23:30;1.23;;;0.40;;
22363;SDS011;11349;53.412;-1.328;2024-02-21T11:26:06;0.63;;;0.20;;
22363;SDS011;11349;53.412;-1.328;2024-02-21T11:28:33;2.30;;;0.47;;
22363;SDS011;11349;53.412;-1.328;2024-02-21T11:31:08;2.00;;;0.30;;
22363;SDS011;11349;53.412;-1.328;2024-02-21T11:33:39;0.80;;;0.28;;
22363;SDS011;11349;53.412;-1.328;2024-02-21T11:36:09;1.55;;;0.20;;
22363;SDS011;11349;53.412;-1.328;2024-02-21T11:38:35;1.88;;;0.30;;
22363;SDS011;11349;53.412;-1.328;2024-02-21T11:41:01;1.63;;;0.20;;
22363;SDS011;11349;53.412;-1.328;2024-02-21T11:43:27;0.93;;;0.30;;
22363;SDS011;11349;53.412;-1.328;2024-02-21T11:45:59;0.65;;;0.25;;
22363;SDS011;11349;53.412;-1.328;2024-02-21T11:48:26;1.13;;;0.32;;
22363;SDS011;11349;53.412;-1.328;2024-02-21T11:50:55;0.73;;;0.30;;
22363;SDS011;11349;53.412;-1.328;2024-02-21T11:53:21;0.35;;;0.10;;
22363;SDS011;11349;53.412;-1.328;2024-02-21T11:55:47;1.58;;;0.30;;
22363;SDS011;11349;53.412;-1.328;2024-02-21T11:58:14;1.13;;;0.30;;
22363;SDS011;11349;53.412;-1.328;2024-02-21T12:00:41;0.70;;;0.25;;
22363;SDS011;11349;53.412;-1.328;2024-02-21T12:03:07;1.92;;;0.40;;
22363;SDS011;11349;53.412;-1.328;2024-02-21T12:05:33;0.95;;;0.30;;
22363;SDS011;11349;53.412;-1.328;2024-02-21T12:07:59;1.42;;;0.35;;
22363;SDS011;11349;53.412;-1.328;2024-02-21T12:10:26;1.17;;;0.40;;
22363;SDS011;11349;53.412;-1.328;2024-02-21T12:13:04;1.00;;;0.30;;
22363;SDS011;11349;53.412;-1.328;2024-02-21T12:15:34;1.63;;;0.50;;
22363;SDS011;11349;53.412;-1.328;2024-02-21T12:18:00;1.17;;;0.25;;
22363;SDS011;11349;53.412;-1.328;2024-02-21T12:20:26;0.93;;;0.30;;
22363;SDS011;11349;53.412;-1.328;2024-02-21T12:22:52;0.95;;;0.20;;
22363;SDS011;11349;53.412;-1.328;2024-02-21T12:25:20;1.75;;;0.20;;
22363;SDS011;11349;53.412;-1.328;2024-02-21T12:27:52;2.50;;;0.40;;
22363;SDS011;11349;53.412;-1.328;2024-02-21T12:30:18;0.80;;;0.30;;
22363;SDS011;11349;53.412;-1.328;2024-02-21T12:32:44;1.58;;;0.20;;
22363;SDS011;11349;53.412;-1.328;2024-02-21T12:35:11;0.45;;;0.20;;
22363;SDS011;11349;53.412;-1.328;2024-02-21T12:37:37;1.85;;;0.30;;
22363;SDS011;11349;53.412;-1.328;2024-02-21T12:40:06;0.50;;;0.20;;
22363;SDS011;11349;53.412;-1.328;2024-02-21T12:42:33;1.08;;;0.45;;
22363;SDS011;11349;53.412;-1.328;2024-02-21T12:45:00;2.35;;;0.50;;
22363;SDS011;11349;53.412;-1.328;2024-02-21T12:47:28;0.80;;;0.10;;
22363;SDS011;11349;53.412;-1.328;2024-02-21T12:49:53;0.73;;;0.30;;
22363;SDS011;11349;53.412;-1.328;2024-02-21T12:52:19;0.70;;;0.20;;
22363;SDS011;11349;53.412;-1.328;2024-02-21T12:54:45;2.17;;;0.40;;
22363;SDS011;11349;53.412;-1.328;2024-02-21T12:57:11;1.63;;;0.20;;
22363;SDS011;11349;53.412;-1.328;2024-02-21T12:59:36;1.88;;;0.40;;
22363;SDS011;11349;53.412;-1.328;2024-02-21T13:02:02;0.88;;;0.32;;
22363;SDS011;11349;53.412;-1.328;2024-02-21T13:04:28;0.35;;;0.15;;
22363;SDS011;11349;53.412;-1.328;2024-02-21T13:06:54;0.25;;;0.10;;
22363;SDS011;11349;53.412;-1.328;2024-02-21T13:09:20;1.73;;;0.30;;
22363;SDS011;11349;53.412;-1.328;2024-02-21T13:11:46;1.27;;;0.40;;
22363;SDS011;11349;53.412;-1.328;2024-02-21T13:14:12;0.63;;;0.30;;
22363;SDS011;11349;53.412;-1.328;2024-02-21T13:16:38;0.63;;;0.30;;
22363;SDS011;11349;53.412;-1.328;2024-02-21T13:19:07;1.17;;;0.28;;
22363;SDS011;11349;53.412;-1.328;2024-02-21T13:21:34;1.55;;;0.32;;
22363;SDS011;11349;53.412;-1.328;2024-02-21T13:24:00;0.75;;;0.30;;
22363;SDS011;11349;53.412;-1.328;2024-02-21T13:26:26;1.20;;;0.30;;
22363;SDS011;11349;53.412;-1.328;2024-02-21T13:28:52;0.85;;;0.50;;
22363;SDS011;11349;53.412;-1.328;2024-02-21T13:31:18;1.20;;;0.30;;
22363;SDS011;11349;53.412;-1.328;2024-02-21T13:33:45;1.27;;;0.47;;
22363;SDS011;11349;53.412;-1.328;2024-02-21T13:36:10;0.35;;;0.15;;
22363;SDS011;11349;53.412;-1.328;2024-02-21T13:38:36;0.65;;;0.20;;
22363;SDS011;11349;53.412;-1.328;2024-02-21T13:41:04;0.70;;;0.20;;
22363;SDS011;11349;53.412;-1.328;2024-02-21T13:43:31;1.00;;;0.30;;
22363;SDS011;11349;53.412;-1.328;2024-02-21T13:45:58;1.02;;;0.32;;
22363;SDS011;11349;53.412;-1.328;2024-02-21T13:48:26;1.27;;;0.20;;
22363;SDS011;11349;53.412;-1.328;2024-02-21T13:50:52;2.63;;;0.40;;
22363;SDS011;11349;53.412;-1.328;2024-02-21T13:53:18;0.35;;;0.20;;
22363;SDS011;11349;53.412;-1.328;2024-02-21T13:55:44;0.47;;;0.20;;
22363;SDS011;11349;53.412;-1.328;2024-02-21T13:58:10;0.70;;;0.20;;
22363;SDS011;11349;53.412;-1.328;2024-02-21T14:00:36;0.40;;;0.10;;
22363;SDS011;11349;53.412;-1.328;2024-02-21T14:03:02;1.13;;;0.20;;
22363;SDS011;11349;53.412;-1.328;2024-02-21T14:05:28;1.00;;;0.28;;
22363;SDS011;11349;53.412;-1.328;2024-02-21T14:07:54;0.25;;;0.10;;
22363;SDS011;11349;53.412;-1.328;2024-02-21T14:10:20;2.00;;;0.38;;
22363;SDS011;11349;53.412;-1.328;2024-02-21T14:12:46;0.57;;;0.35;;
22363;SDS011;11349;53.412;-1.328;2024-02-21T14:15:13;1.85;;;0.30;;
22363;SDS011;11349;53.412;-1.328;2024-02-21T14:17:39;2.15;;;0.50;;
22363;SDS011;11349;53.412;-1.328;2024-02-21T14:20:06;0.65;;;0.25;;
22363;SDS011;11349;53.412;-1.328;2024-02-21T14:22:32;0.98;;;0.35;;
22363;SDS011;11349;53.412;-1.328;2024-02-21T14:24:59;1.20;;;0.52;;
22363;SDS011;11349;53.412;-1.328;2024-02-21T14:27:25;1.63;;;0.30;;
22363;SDS011;11349;53.412;-1.328;2024-02-21T14:29:51;1.25;;;0.30;;
22363;SDS011;11349;53.412;-1.328;2024-02-21T14:32:18;1.00;;;0.30;;
22363;SDS011;11349;53.412;-1.328;2024-02-21T14:34:45;1.30;;;0.40;;
22363;SDS011;11349;53.412;-1.328;2024-02-21T14:37:10;0.52;;;0.25;;
22363;SDS011;11349;53.412;-1.328;2024-02-21T14:39:37;1.38;;;0.20;;